sensor_id;sensor_type;location;lat;lon;timestamp;P1;durP1;ratioP1;P2;durP2;ratioP2
53642;SDS011;39546;45.534;12.048;2022-08-19T00:04:31;2.80;;;1.12;;
53642;SDS011;39546;45.534;12.048;2022-08-19T00:10:37;1.65;;;0.82;;
53642;SDS011;39546;45.534;12.048;2022-08-19T00:16:40;3.87;;;1.02;;
53642;SDS011;39546;45.534;12.048;2022-08-19T00:22:46;2.80;;;1.50;;
53642;SDS011;39546;45.534;12.048;2022-08-19T00:28:49;5.28;;;2.08;;
53642;SDS011;39546;45.534;12.048;2022-08-19T00:34:52;8.20;;;2.50;;
53642;SDS011;39546;45.534;12.048;2022-08-19T00:40:55;4.10;;;1.62;;
53642;SDS011;39546;45.534;12.048;2022-08-19T00:46:58;2.33;;;1.35;;
53642;SDS011;39546;45.534;12.048;2022-08-19T00:53:00;2.97;;;1.35;;
53642;SDS011;39546;45.534;12.048;2022-08-19T00:59:05;6.62;;;1.60;;
53642;SDS011;39546;45.534;12.048;2022-08-19T01:05:11;5.62;;;1.67;;
53642;SDS011;39546;45.534;12.048;2022-08-19T01:11:17;2.95;;;1.48;;
53642;SDS011;39546;45.534;12.048;2022-08-19T01:17:19;1.45;;;1.23;;
53642;SDS011;39546;45.534;12.048;2022-08-19T01:23:22;4.00;;;1.75;;
53642;SDS011;39546;45.534;12.048;2022-08-19T01:29:52;6.40;;;1.95;;
53642;SDS011;39546;45.534;12.048;2022-08-19T01:35:58;3.97;;;1.40;;
53642;SDS011;39546;45.534;12.048;2022-08-19T01:42:09;5.93;;;1.58;;
53642;SDS011;39546;45.534;12.048;2022-08-19T01:48:13;3.22;;;1.58;;
53642;SDS011;39546;45.534;12.048;2022-08-19T01:54:17;7.25;;;1.95;;
53642;SDS011;39546;45.534;12.048;2022-08-19T02:00:21;10.93;;;1.70;;
53642;SDS011;39546;45.534;12.048;2022-08-19T02:06:26;3.90;;;1.00;;
53642;SDS011;39546;45.534;12.048;2022-08-19T02:12:35;12.10;;;1.30;;
53642;SDS011;39546;45.534;12.048;2022-08-19T02:18:37;5.43;;;2.12;;
53642;SDS011;39546;45.534;12.048;2022-08-19T02:24:39;3.60;;;1.73;;
53642;SDS011;39546;45.534;12.048;2022-08-19T02:30:42;2.87;;;1.27;;
53642;SDS011;39546;45.534;12.048;2022-08-19T02:37:00;8.38;;;2.08;;
53642;SDS011;39546;45.534;12.048;2022-08-19T02:43:03;4.50;;;2.10;;
53642;SDS011;39546;45.534;12.048;2022-08-19T02:49:09;9.50;;;2.92;;
53642;SDS011;39546;45.534;12.048;2022-08-19T03:01:38;6.75;;;2.05;;
53642;SDS011;39546;45.534;12.048;2022-08-19T03:07:53;5.95;;;2.67;;
53642;SDS011;39546;45.534;12.048;2022-08-19T03:13:55;2.62;;;1.83;;
53642;SDS011;39546;45.534;12.048;2022-08-19T03:19:58;3.72;;;1.30;;
53642;SDS011;39546;45.534;12.048;2022-08-19T03:26:03;2.37;;;1.20;;
53642;SDS011;39546;45.534;12.048;2022-08-19T03:32:06;5.00;;;1.55;;
53642;SDS011;39546;45.534;12.048;2022-08-19T03:38:08;6.15;;;1.67;;
53642;SDS011;39546;45.534;12.048;2022-08-19T03:44:10;2.53;;;1.65;;
53642;SDS011;39546;45.534;12.048;2022-08-19T03:50:12;3.08;;;1.00;;
53642;SDS011;39546;45.534;12.048;2022-08-19T03:56:14;2.05;;;1.12;;
53642;SDS011;39546;45.534;12.048;2022-08-19T04:02:17;3.53;;;0.95;;
53642;SDS011;39546;45.534;12.048;2022-08-19T04:08:19;0.85;;;0.62;;
53642;SDS011;39546;45.534;12.048;2022-08-19T04:14:29;6.60;;;1.30;;
53642;SDS011;39546;45.534;12.048;2022-08-19T04:20:38;2.12;;;0.65;;
53642;SDS011;39546;45.534;12.048;2022-08-19T04:26:42;2.03;;;0.93;;
53642;SDS011;39546;45.534;12.048;2022-08-19T04:32:44;1.37;;;0.95;;
53642;SDS011;39546;45.534;12.048;2022-08-19T04:38:47;0.98;;;0.68;;
53642;SDS011;39546;45.534;12.048;2022-08-19T04:44:50;2.35;;;1.02;;
53642;SDS011;39546;45.534;12.048;2022-08-19T04:50:54;2.85;;;0.95;;
53642;SDS011;39546;45.534;12.048;2022-08-19T04:57:00;1.17;;;0.53;;
53642;SDS011;39546;45.534;12.048;2022-08-19T05:03:10;2.85;;;1.23;;
53642;SDS011;39546;45.534;12.048;2022-08-19T05:09:41;1.95;;;0.82;;
53642;SDS011;39546;45.534;12.048;2022-08-19T05:15:44;3.67;;;1.00;;
53642;SDS011;39546;45.534;12.048;2022-08-19T05:21:55;2.35;;;1.17;;
53642;SDS011;39546;45.534;12.048;2022-08-19T05:28:15;2.95;;;1.12;;
53642;SDS011;39546;45.534;12.048;2022-08-19T05:34:18;1.00;;;0.85;;
53642;SDS011;39546;45.534;12.048;2022-08-19T05:40:23;1.50;;;1.02;;
53642;SDS011;39546;45.534;12.048;2022-08-19T05:46:27;2.35;;;1.02;;
53642;SDS011;39546;45.534;12.048;2022-08-19T05:52:29;1.75;;;1.08;;
53642;SDS011;39546;45.534;12.048;2022-08-19T05:58:31;5.55;;;1.05;;
53642;SDS011;39546;45.534;12.048;2022-08-19T06:04:37;6.25;;;1.17;;
53642;SDS011;39546;45.534;12.048;2022-08-19T06:10:40;0.88;;;0.65;;
53642;SDS011;39546;45.534;12.048;2022-08-19T06:16:44;1.55;;;0.77;;
53642;SDS011;39546;45.534;12.048;2022-08-19T06:22:47;0.40;;;0.40;;
53642;SDS011;39546;45.534;12.048;2022-08-19T06:28:51;1.20;;;0.40;;
53642;SDS011;39546;45.534;12.048;2022-08-19T06:34:54;1.58;;;0.77;;
53642;SDS011;39546;45.534;12.048;2022-08-19T06:41:00;4.12;;;0.88;;
53642;SDS011;39546;45.534;12.048;2022-08-19T06:47:06;1.20;;;0.77;;
53642;SDS011;39546;45.534;12.048;2022-08-19T06:53:09;1.17;;;0.90;;
53642;SDS011;39546;45.534;12.048;2022-08-19T06:59:16;0.80;;;0.77;;
53642;SDS011;39546;45.534;12.048;2022-08-19T07:05:20;1.25;;;0.85;;
53642;SDS011;39546;45.534;12.048;2022-08-19T07:11:22;3.47;;;1.25;;
53642;SDS011;39546;45.534;12.048;2022-08-19T07:17:24;3.37;;;0.70;;
53642;SDS011;39546;45.534;12.048;2022-08-19T07:23:27;1.25;;;0.50;;
53642;SDS011;39546;45.534;12.048;2022-08-19T07:29:30;2.87;;;1.35;;
53642;SDS011;39546;45.534;12.048;2022-08-19T07:35:40;7.68;;;1.50;;
53642;SDS011;39546;45.534;12.048;2022-08-19T07:41:44;1.75;;;0.90;;
53642;SDS011;39546;45.534;12.048;2022-08-19T07:47:47;0.65;;;0.43;;
53642;SDS011;39546;45.534;12.048;2022-08-19T07:53:49;0.85;;;0.70;;
53642;SDS011;39546;45.534;12.048;2022-08-19T07:59:51;0.82;;;0.70;;
53642;SDS011;39546;45.534;12.048;2022-08-19T08:05:54;0.88;;;0.60;;
53642;SDS011;39546;45.534;12.048;2022-08-19T08:12:16;2.92;;;0.68;;
53642;SDS011;39546;45.534;12.048;2022-08-19T08:24:26;2.15;;;0.88;;
53642;SDS011;39546;45.534;12.048;2022-08-19T08:30:31;1.23;;;0.45;;
53642;SDS011;39546;45.534;12.048;2022-08-19T08:37:06;1.95;;;0.80;;
53642;SDS011;39546;45.534;12.048;2022-08-19T08:55:30;3.20;;;1.00;;
53642;SDS011;39546;45.534;12.048;2022-08-19T09:01:33;2.05;;;1.17;;
53642;SDS011;39546;45.534;12.048;2022-08-19T09:14:10;3.17;;;0.88;;
53642;SDS011;39546;45.534;12.048;2022-08-19T09:20:30;1.45;;;1.15;;
53642;SDS011;39546;45.534;12.048;2022-08-19T09:26:32;1.37;;;0.98;;
53642;SDS011;39546;45.534;12.048;2022-08-19T09:32:35;3.50;;;1.35;;
53642;SDS011;39546;45.534;12.048;2022-08-19T09:38:37;2.00;;;1.15;;
53642;SDS011;39546;45.534;12.048;2022-08-19T09:44:42;3.33;;;0.80;;
53642;SDS011;39546;45.534;12.048;2022-08-19T09:50:44;1.15;;;1.00;;
53642;SDS011;39546;45.534;12.048;2022-08-19T09:56:46;3.33;;;1.05;;
53642;SDS011;39546;45.534;12.048;2022-08-19T10:02:48;1.62;;;0.73;;
53642;SDS011;39546;45.534;12.048;2022-08-19T10:08:51;5.78;;;1.40;;
53642;SDS011;39546;45.534;12.048;2022-08-19T10:14:53;0.98;;;0.60;;
53642;SDS011;39546;45.534;12.048;2022-08-19T10:21:11;1.52;;;0.70;;
53642;SDS011;39546;45.534;12.048;2022-08-19T10:27:13;0.98;;;0.47;;
53642;SDS011;39546;45.534;12.048;2022-08-19T10:33:15;4.97;;;0.70;;
53642;SDS011;39546;45.534;12.048;2022-08-19T10:39:17;1.27;;;0.52;;
53642;SDS011;39546;45.534;12.048;2022-08-19T10:45:19;4.40;;;1.20;;
53642;SDS011;39546;45.534;12.048;2022-08-19T10:51:24;5.03;;;1.02;;
53642;SDS011;39546;45.534;12.048;2022-08-19T11:04:14;1.05;;;0.45;;
53642;SDS011;39546;45.534;12.048;2022-08-19T11:10:18;1.73;;;0.45;;
53642;SDS011;39546;45.534;12.048;2022-08-19T11:16:22;5.97;;;0.75;;
53642;SDS011;39546;45.534;12.048;2022-08-19T11:22:27;3.05;;;0.70;;
53642;SDS011;39546;45.534;12.048;2022-08-19T11:28:29;1.55;;;0.47;;
53642;SDS011;39546;45.534;12.048;2022-08-19T11:34:31;2.12;;;0.68;;
53642;SDS011;39546;45.534;12.048;2022-08-19T11:40:33;1.30;;;0.80;;
53642;SDS011;39546;45.534;12.048;2022-08-19T11:46:36;2.90;;;0.82;;
53642;SDS011;39546;45.534;12.048;2022-08-19T11:52:39;0.62;;;0.47;;
53642;SDS011;39546;45.534;12.048;2022-08-19T11:58:41;0.88;;;0.60;;
53642;SDS011;39546;45.534;12.048;2022-08-19T12:04:43;0.52;;;0.50;;
53642;SDS011;39546;45.534;12.048;2022-08-19T12:10:46;1.40;;;0.85;;
53642;SDS011;39546;45.534;12.048;2022-08-19T12:16:48;2.15;;;0.50;;
53642;SDS011;39546;45.534;12.048;2022-08-19T12:22:51;1.08;;;0.55;;
53642;SDS011;39546;45.534;12.048;2022-08-19T12:28:53;1.62;;;0.77;;
53642;SDS011;39546;45.534;12.048;2022-08-19T12:34:55;2.08;;;1.00;;
53642;SDS011;39546;45.534;12.048;2022-08-19T12:40:57;6.10;;;1.23;;
53642;SDS011;39546;45.534;12.048;2022-08-19T12:46:59;1.73;;;0.93;;
53642;SDS011;39546;45.534;12.048;2022-08-19T12:59:22;5.00;;;0.90;;
53642;SDS011;39546;45.534;12.048;2022-08-19T13:05:25;2.30;;;1.12;;
53642;SDS011;39546;45.534;12.048;2022-08-19T13:11:30;2.53;;;0.73;;
53642;SDS011;39546;45.534;12.048;2022-08-19T13:17:35;3.62;;;1.35;;
53642;SDS011;39546;45.534;12.048;2022-08-19T13:23:37;1.62;;;0.62;;
53642;SDS011;39546;45.534;12.048;2022-08-19T13:29:41;1.65;;;0.68;;
53642;SDS011;39546;45.534;12.048;2022-08-19T13:36:02;2.40;;;0.70;;
53642;SDS011;39546;45.534;12.048;2022-08-19T13:42:08;1.55;;;0.82;;
53642;SDS011;39546;45.534;12.048;2022-08-19T13:48:11;2.03;;;0.88;;
53642;SDS011;39546;45.534;12.048;2022-08-19T13:54:13;2.12;;;1.02;;
53642;SDS011;39546;45.534;12.048;2022-08-19T14:00:16;1.55;;;0.95;;
53642;SDS011;39546;45.534;12.048;2022-08-19T14:06:19;4.97;;;1.05;;
53642;SDS011;39546;45.534;12.048;2022-08-19T14:12:22;0.37;;;0.30;;
53642;SDS011;39546;45.534;12.048;2022-08-19T14:18:24;2.47;;;0.45;;
53642;SDS011;39546;45.534;12.048;2022-08-19T14:24:27;1.65;;;0.43;;
53642;SDS011;39546;45.534;12.048;2022-08-19T14:30:30;3.15;;;0.68;;
53642;SDS011;39546;45.534;12.048;2022-08-19T14:36:45;5.30;;;0.70;;
53642;SDS011;39546;45.534;12.048;2022-08-19T14:42:47;2.40;;;0.88;;
53642;SDS011;39546;45.534;12.048;2022-08-19T14:48:49;1.35;;;0.62;;
53642;SDS011;39546;45.534;12.048;2022-08-19T14:54:51;1.95;;;0.70;;
53642;SDS011;39546;45.534;12.048;2022-08-19T15:00:54;4.55;;;1.02;;
53642;SDS011;39546;45.534;12.048;2022-08-19T15:06:56;1.42;;;0.57;;
53642;SDS011;39546;45.534;12.048;2022-08-19T15:12:58;4.50;;;1.05;;
53642;SDS011;39546;45.534;12.048;2022-08-19T15:19:00;1.75;;;0.43;;
53642;SDS011;39546;45.534;12.048;2022-08-19T15:25:03;0.98;;;0.45;;
53642;SDS011;39546;45.534;12.048;2022-08-19T15:31:06;2.25;;;0.62;;
53642;SDS011;39546;45.534;12.048;2022-08-19T15:37:09;2.65;;;0.77;;
53642;SDS011;39546;45.534;12.048;2022-08-19T15:43:11;1.10;;;0.57;;
53642;SDS011;39546;45.534;12.048;2022-08-19T15:49:15;0.95;;;0.45;;
53642;SDS011;39546;45.534;12.048;2022-08-19T15:55:19;1.12;;;0.62;;
53642;SDS011;39546;45.534;12.048;2022-08-19T16:01:25;4.18;;;0.93;;
53642;SDS011;39546;45.534;12.048;2022-08-19T16:07:46;4.03;;;0.90;;
53642;SDS011;39546;45.534;12.048;2022-08-19T16:13:48;2.10;;;0.73;;
53642;SDS011;39546;45.534;12.048;2022-08-19T16:19:52;7.20;;;1.25;;
53642;SDS011;39546;45.534;12.048;2022-08-19T16:25:54;0.80;;;0.50;;
53642;SDS011;39546;45.534;12.048;2022-08-19T16:31:56;2.67;;;1.12;;
53642;SDS011;39546;45.534;12.048;2022-08-19T16:37:58;2.92;;;0.82;;
53642;SDS011;39546;45.534;12.048;2022-08-19T16:44:02;4.50;;;1.62;;
53642;SDS011;39546;45.534;12.048;2022-08-19T16:50:07;1.00;;;0.50;;
53642;SDS011;39546;45.534;12.048;2022-08-19T16:56:09;4.28;;;0.85;;
53642;SDS011;39546;45.534;12.048;2022-08-19T17:02:47;3.75;;;1.00;;
53642;SDS011;39546;45.534;12.048;2022-08-19T17:08:50;1.65;;;0.65;;
53642;SDS011;39546;45.534;12.048;2022-08-19T17:14:54;1.80;;;0.90;;
53642;SDS011;39546;45.534;12.048;2022-08-19T17:20:57;2.10;;;0.70;;
53642;SDS011;39546;45.534;12.048;2022-08-19T17:27:01;1.33;;;0.65;;
53642;SDS011;39546;45.534;12.048;2022-08-19T17:33:06;1.15;;;0.50;;
53642;SDS011;39546;45.534;12.048;2022-08-19T17:39:08;2.15;;;0.90;;
53642;SDS011;39546;45.534;12.048;2022-08-19T17:45:11;1.85;;;0.95;;
53642;SDS011;39546;45.534;12.048;2022-08-19T17:51:15;2.22;;;0.75;;
53642;SDS011;39546;45.534;12.048;2022-08-19T17:57:24;1.65;;;0.70;;
53642;SDS011;39546;45.534;12.048;2022-08-19T18:03:26;1.98;;;0.82;;
53642;SDS011;39546;45.534;12.048;2022-08-19T18:09:32;1.45;;;0.85;;
53642;SDS011;39546;45.534;12.048;2022-08-19T18:15:40;2.10;;;0.80;;
53642;SDS011;39546;45.534;12.048;2022-08-19T18:21:42;1.60;;;1.00;;
53642;SDS011;39546;45.534;12.048;2022-08-19T18:27:45;1.92;;;0.60;;
53642;SDS011;39546;45.534;12.048;2022-08-19T18:33:48;3.37;;;1.55;;
53642;SDS011;39546;45.534;12.048;2022-08-19T18:39:52;2.25;;;1.00;;
53642;SDS011;39546;45.534;12.048;2022-08-19T18:46:13;3.67;;;1.33;;
53642;SDS011;39546;45.534;12.048;2022-08-19T18:52:34;3.97;;;1.70;;
53642;SDS011;39546;45.534;12.048;2022-08-19T18:58:37;5.68;;;2.10;;
53642;SDS011;39546;45.534;12.048;2022-08-19T19:04:40;4.32;;;1.45;;
53642;SDS011;39546;45.534;12.048;2022-08-19T19:10:43;2.95;;;1.40;;
53642;SDS011;39546;45.534;12.048;2022-08-19T19:16:45;4.57;;;1.58;;
53642;SDS011;39546;45.534;12.048;2022-08-19T19:22:50;10.73;;;2.62;;
53642;SDS011;39546;45.534;12.048;2022-08-19T19:28:53;7.40;;;1.98;;
53642;SDS011;39546;45.534;12.048;2022-08-19T19:34:57;1.58;;;1.37;;
53642;SDS011;39546;45.534;12.048;2022-08-19T19:41:00;5.30;;;1.70;;
53642;SDS011;39546;45.534;12.048;2022-08-19T19:47:12;3.17;;;1.30;;
53642;SDS011;39546;45.534;12.048;2022-08-19T19:53:15;2.95;;;0.80;;
53642;SDS011;39546;45.534;12.048;2022-08-19T19:59:17;3.10;;;1.42;;
53642;SDS011;39546;45.534;12.048;2022-08-19T20:05:20;4.87;;;1.40;;
53642;SDS011;39546;45.534;12.048;2022-08-19T20:11:24;7.43;;;1.77;;
53642;SDS011;39546;45.534;12.048;2022-08-19T20:17:35;4.03;;;1.58;;
53642;SDS011;39546;45.534;12.048;2022-08-19T20:23:43;4.43;;;1.67;;
53642;SDS011;39546;45.534;12.048;2022-08-19T20:29:45;3.37;;;1.55;;
53642;SDS011;39546;45.534;12.048;2022-08-19T20:35:47;1.80;;;1.12;;
53642;SDS011;39546;45.534;12.048;2022-08-19T20:41:49;3.40;;;1.42;;
53642;SDS011;39546;45.534;12.048;2022-08-19T20:47:52;2.75;;;1.62;;
53642;SDS011;39546;45.534;12.048;2022-08-19T20:53:54;3.37;;;1.42;;
53642;SDS011;39546;45.534;12.048;2022-08-19T20:59:57;4.60;;;1.30;;
53642;SDS011;39546;45.534;12.048;2022-08-19T21:05:59;6.80;;;1.10;;
53642;SDS011;39546;45.534;12.048;2022-08-19T21:12:03;2.47;;;1.48;;
53642;SDS011;39546;45.534;12.048;2022-08-19T21:18:08;2.10;;;1.02;;
53642;SDS011;39546;45.534;12.048;2022-08-19T21:24:11;2.62;;;1.73;;
53642;SDS011;39546;45.534;12.048;2022-08-19T21:30:13;3.20;;;1.60;;
53642;SDS011;39546;45.534;12.048;2022-08-19T21:36:15;3.45;;;1.45;;
53642;SDS011;39546;45.534;12.048;2022-08-19T21:42:17;3.78;;;1.33;;
53642;SDS011;39546;45.534;12.048;2022-08-19T21:48:20;3.40;;;2.05;;
53642;SDS011;39546;45.534;12.048;2022-08-19T21:54:22;5.97;;;2.03;;
53642;SDS011;39546;45.534;12.048;2022-08-19T22:00:24;2.62;;;1.50;;
53642;SDS011;39546;45.534;12.048;2022-08-19T22:06:28;7.03;;;2.10;;
53642;SDS011;39546;45.534;12.048;2022-08-19T22:12:31;2.45;;;1.45;;
53642;SDS011;39546;45.534;12.048;2022-08-19T22:18:35;2.22;;;1.58;;
53642;SDS011;39546;45.534;12.048;2022-08-19T22:24:38;4.03;;;2.17;;
53642;SDS011;39546;45.534;12.048;2022-08-19T22:30:41;2.62;;;1.55;;
53642;SDS011;39546;45.534;12.048;2022-08-19T22:36:44;2.58;;;1.52;;
53642;SDS011;39546;45.534;12.048;2022-08-19T22:42:46;2.30;;;1.62;;
53642;SDS011;39546;45.534;12.048;2022-08-19T22:48:49;2.83;;;1.70;;
53642;SDS011;39546;45.534;12.048;2022-08-19T22:54:52;3.62;;;1.30;;
53642;SDS011;39546;45.534;12.048;2022-08-19T23:00:57;4.15;;;1.73;;
53642;SDS011;39546;45.534;12.048;2022-08-19T23:07:24;3.25;;;1.20;;
53642;SDS011;39546;45.534;12.048;2022-08-19T23:13:26;3.25;;;2.17;;
53642;SDS011;39546;45.534;12.048;2022-08-19T23:19:31;2.97;;;1.48;;
53642;SDS011;39546;45.534;12.048;2022-08-19T23:25:34;2.12;;;1.48;;
53642;SDS011;39546;45.534;12.048;2022-08-19T23:31:37;2.47;;;1.17;;
53642;SDS011;39546;45.534;12.048;2022-08-19T23:37:39;4.43;;;1.70;;
53642;SDS011;39546;45.534;12.048;2022-08-19T23:43:41;3.58;;;1.83;;
53642;SDS011;39546;45.534;12.048;2022-08-19T23:49:45;2.33;;;1.48;;
53642;SDS011;39546;45.534;12.048;2022-08-19T23:55:48;2.70;;;1.55;;
